createdAt,value
2022-10-18T00:02:56.830Z,97854.69
2022-10-18T00:08:04.178Z,97847.56
2022-10-18T00:13:11.895Z,97844.34
2022-10-18T00:18:16.132Z,97849.81
2022-10-18T00:23:20.096Z,97838.13
2022-10-18T00:28:23.486Z,97827.00
2022-10-18T00:33:26.634Z,97831.31
2022-10-18T00:38:29.838Z,97822.63
2022-10-18T00:43:33.420Z,97820.47
2022-10-18T00:48:36.949Z,97831.88
2022-10-18T00:53:43.786Z,97832.97
2022-10-18T00:58:56.135Z,97828.06
2022-10-18T01:03:59.750Z,97826.19
2022-10-18T01:09:28.739Z,97823.47
2022-10-18T01:15:06.297Z,97818.28
2022-10-18T01:20:28.489Z,97822.91
2022-10-18T01:25:58.086Z,97824.03
2022-10-18T01:31:25.926Z,97826.72
2022-10-18T01:36:34.103Z,97834.28
2022-10-18T01:41:41.086Z,97834.66
2022-10-18T01:46:48.080Z,97823.66
2022-10-18T01:52:05.789Z,97829.06
2022-10-18T01:57:24.056Z,97830.38
2022-10-18T02:02:42.762Z,97832.78
2022-10-18T02:08:12.452Z,97821.63
2022-10-18T02:13:29.275Z,97827.31
2022-10-18T02:19:08.750Z,97831.09
2022-10-18T02:24:17.900Z,97821.59
2022-10-18T02:29:21.705Z,97815.63
2022-10-18T02:34:32.388Z,97805.00
2022-10-18T02:39:39.338Z,97820.69
2022-10-18T02:44:43.345Z,97817.69
2022-10-18T02:49:46.707Z,97835.28
2022-10-18T02:54:50.140Z,97838.47
2022-10-18T02:59:53.930Z,97827.09
2022-10-18T03:04:57.372Z,97827.63
2022-10-18T03:10:01.306Z,97827.84
2022-10-18T03:15:06.448Z,97835.16
2022-10-18T03:20:10.139Z,97829.22
2022-10-18T03:25:13.534Z,97834.09
2022-10-18T03:30:17.605Z,97838.69
2022-10-18T03:35:21.510Z,97847.03
2022-10-18T03:40:24.882Z,97849.50
2022-10-18T03:45:31.225Z,97854.09
2022-10-18T03:50:35.560Z,97857.63
2022-10-18T03:55:39.153Z,97854.38
2022-10-18T04:00:42.952Z,97861.13
2022-10-18T04:05:48.215Z,97861.94
2022-10-18T04:10:51.773Z,97869.81
2022-10-18T04:15:55.583Z,97881.47
2022-10-18T04:20:59.017Z,97889.88
2022-10-18T04:26:02.304Z,97889.88
2022-10-18T04:31:06.870Z,97895.84
2022-10-18T04:36:10.460Z,97903.19
2022-10-18T04:41:13.780Z,97893.47
2022-10-18T04:46:17.075Z,97895.41
2022-10-18T04:51:20.464Z,97903.84
2022-10-18T04:56:23.984Z,97904.41
2022-10-18T05:01:27.911Z,97911.78
2022-10-18T05:06:31.498Z,97920.56
2022-10-18T05:11:34.962Z,97921.72
2022-10-18T05:16:38.411Z,97927.84
2022-10-18T05:21:43.726Z,97937.59
2022-10-18T05:26:50.035Z,97942.19
2022-10-18T05:31:54.808Z,97947.63
2022-10-18T05:36:59.552Z,97949.53
2022-10-18T05:42:03.096Z,97957.41
2022-10-18T05:47:06.544Z,97952.75
2022-10-18T05:52:09.729Z,97952.25
2022-10-18T05:57:13.024Z,97948.69
2022-10-18T06:02:16.319Z,97948.56
2022-10-18T06:07:19.624Z,97952.53
2022-10-18T06:12:23.018Z,97954.63
2022-10-18T06:17:28.986Z,97954.03
2022-10-18T06:22:35.733Z,97950.75
2022-10-18T06:27:41.447Z,97942.25
2022-10-18T06:32:47.229Z,97940.66
2022-10-18T06:37:50.812Z,97944.66
2022-10-18T06:43:00.456Z,97959.50
2022-10-18T06:48:17.642Z,97957.72
2022-10-18T06:53:21.619Z,97959.03
2022-10-18T06:58:25.239Z,97952.06
2022-10-18T07:03:28.655Z,97958.47
2022-10-18T07:08:34.720Z,97959.31
2022-10-18T07:13:39.839Z,97961.56
2022-10-18T07:18:45.914Z,97959.63
2022-10-18T07:23:50.516Z,97959.63
2022-10-18T07:29:07.507Z,97960.44
2022-10-18T07:34:20.188Z,97957.09
2022-10-18T07:39:32.006Z,97957.25
2022-10-18T07:44:35.291Z,97952.13
2022-10-18T07:49:38.503Z,97950.03
2022-10-18T07:54:42.400Z,97947.28
2022-10-18T07:59:45.854Z,97943.91
2022-10-18T08:04:49.959Z,97941.50
2022-10-18T08:09:53.536Z,97934.06
2022-10-18T08:14:56.999Z,97935.97
2022-10-18T08:20:11.676Z,97928.75
2022-10-18T08:25:16.088Z,97935.00
2022-10-18T08:30:19.402Z,97930.38
2022-10-18T08:35:22.755Z,97933.94
2022-10-18T08:40:27.172Z,97924.28
2022-10-18T08:45:42.353Z,97925.81
2022-10-18T08:50:47.099Z,97923.59
2022-10-18T08:56:10.495Z,97919.94
2022-10-18T09:01:35.553Z,97921.66
2022-10-18T09:06:38.696Z,97917.97
2022-10-18T09:11:47.112Z,97923.03
2022-10-18T09:17:02.665Z,97923.94
2022-10-18T09:22:13.968Z,97911.00
2022-10-18T09:27:20.346Z,97904.47
2022-10-18T09:32:54.721Z,97901.97
2022-10-18T09:38:09.907Z,97895.81
2022-10-18T09:43:25.999Z,97888.19
2022-10-18T09:48:49.487Z,97878.59
2022-10-18T09:53:55.548Z,97874.81
2022-10-18T09:58:58.728Z,97880.59
2022-10-18T10:04:01.957Z,97871.28
2022-10-18T10:09:15.860Z,97872.81
2022-10-18T10:14:25.966Z,97866.53
2022-10-18T10:19:56.408Z,97864.22
2022-10-18T10:25:00.024Z,97870.78
2022-10-18T10:30:07.218Z,97860.06
2022-10-18T10:35:53.372Z,97863.38
2022-10-18T10:40:57.548Z,97861.63
2022-10-18T10:46:02.754Z,97854.88
2022-10-18T10:51:10.831Z,97844.88
2022-10-18T10:56:21.235Z,97849.78
2022-10-18T11:01:33.339Z,97850.19
2022-10-18T11:06:43.086Z,97840.47
2022-10-18T11:11:59.231Z,97834.50
2022-10-18T11:17:26.091Z,97839.09
2022-10-18T11:22:38.286Z,97834.72
2022-10-18T11:28:06.754Z,97837.16
2022-10-18T11:34:07.013Z,97826.22
2022-10-18T11:39:43.262Z,97825.38
2022-10-18T11:45:10.990Z,97827.13
2022-10-18T11:50:58.903Z,97822.25
2022-10-18T11:56:25.083Z,97827.91
2022-10-18T12:01:41.434Z,97836.00
2022-10-18T12:06:49.452Z,97815.94
2022-10-18T12:12:09.219Z,97826.44
2022-10-18T12:17:51.485Z,97827.47
2022-10-18T12:23:04.740Z,97818.97
2022-10-18T12:28:36.895Z,97815.72
2022-10-18T12:33:45.321Z,97807.53
2022-10-18T12:39:01.092Z,97808.16
2022-10-18T12:44:36.784Z,97814.50
2022-10-18T12:49:42.673Z,97811.84
2022-10-18T12:55:17.017Z,97805.69
2022-10-18T13:00:30.319Z,97805.78
2022-10-18T13:05:53.500Z,97805.25
2022-10-18T13:11:09.904Z,97801.69
2022-10-18T13:16:15.865Z,97796.59
2022-10-18T13:21:40.409Z,97794.78
2022-10-18T13:27:36.759Z,97797.06
2022-10-18T13:32:52.365Z,97794.44
2022-10-18T13:37:59.941Z,97794.50
2022-10-18T13:43:51.523Z,97791.03
2022-10-18T13:49:20.130Z,97795.47
2022-10-18T13:54:51.529Z,97803.44
2022-10-18T14:00:56.542Z,97799.44
2022-10-18T14:06:20.336Z,97794.44
2022-10-18T14:11:48.243Z,97792.38
2022-10-18T14:17:03.888Z,97790.81
2022-10-18T14:22:09.867Z,97788.97
2022-10-18T14:27:20.684Z,97790.13
2022-10-18T14:32:32.852Z,97787.22
2022-10-18T14:37:36.895Z,97783.31
2022-10-18T14:42:48.928Z,97785.88
2022-10-18T14:47:52.270Z,97783.84
2022-10-18T14:52:55.708Z,97792.13
2022-10-18T14:57:59.734Z,97800.69
2022-10-18T15:03:13.490Z,97800.78
2022-10-18T15:08:17.540Z,97800.88
2022-10-18T15:13:20.904Z,97800.97
2022-10-18T15:18:26.648Z,97802.41
2022-10-18T15:23:32.399Z,97802.22
2022-10-18T15:28:45.625Z,97804.16
2022-10-18T15:33:49.095Z,97803.44
2022-10-18T15:38:52.214Z,97816.53
2022-10-18T15:44:26.946Z,97819.59
2022-10-18T15:49:30.344Z,97828.84
2022-10-18T15:54:33.789Z,97828.88
2022-10-18T15:59:49.208Z,97840.59
2022-10-18T16:04:52.668Z,97844.97
2022-10-18T16:09:56.247Z,97837.66
2022-10-18T16:14:59.443Z,97841.75
2022-10-18T16:20:02.834Z,97842.59
2022-10-18T16:25:06.489Z,97843.69
2022-10-18T16:30:16.842Z,97850.75
2022-10-18T16:35:21.126Z,97851.59
2022-10-18T16:40:26.761Z,97844.31
2022-10-18T16:45:30.172Z,97847.28
2022-10-18T16:50:35.503Z,97847.03
2022-10-18T16:55:41.024Z,97850.03
2022-10-18T17:00:45.461Z,97846.25
2022-10-18T17:05:48.745Z,97849.25
2022-10-18T17:10:54.136Z,97843.53
2022-10-18T17:15:57.356Z,97843.00
2022-10-18T17:21:00.916Z,97844.38
2022-10-18T17:26:21.923Z,97848.47
2022-10-18T17:31:29.344Z,97845.75
2022-10-18T17:36:34.301Z,97852.03
2022-10-18T17:41:37.906Z,97850.41
2022-10-18T17:46:41.484Z,97854.75
2022-10-18T17:51:45.047Z,97859.38
2022-10-18T17:56:52.311Z,97859.91
2022-10-18T18:01:58.452Z,97872.16
2022-10-18T18:07:03.559Z,97861.81
2022-10-18T18:12:07.022Z,97863.47
2022-10-18T18:17:11.597Z,97860.22
2022-10-18T18:22:17.030Z,97866.19
2022-10-18T18:27:20.715Z,97863.22
2022-10-18T18:32:25.299Z,97859.97
2022-10-18T18:37:28.693Z,97861.34
2022-10-18T18:42:32.770Z,97851.56
2022-10-18T18:47:39.361Z,97857.53
2022-10-18T18:52:42.861Z,97858.09
2022-10-18T18:57:46.657Z,97855.38
2022-10-18T19:02:49.907Z,97858.09
2022-10-18T19:07:53.175Z,97857.53
2022-10-18T19:12:57.135Z,97854.81
2022-10-18T19:18:00.286Z,97852.09
2022-10-18T19:23:03.849Z,97851.31
2022-10-18T19:28:07.112Z,97842.34
2022-10-18T19:33:10.128Z,97836.38
2022-10-18T19:38:14.101Z,97833.13
2022-10-18T19:43:17.546Z,97833.69
2022-10-18T19:48:20.900Z,97832.34
2022-10-18T19:53:24.176Z,97836.41
2022-10-18T19:58:28.162Z,97824.72
2022-10-18T20:03:31.501Z,97822.81
2022-10-18T20:08:36.393Z,97816.88
2022-10-18T20:13:40.010Z,97817.97
2022-10-18T20:18:44.266Z,97810.34
2022-10-18T20:23:47.949Z,97803.84
2022-10-18T20:28:52.870Z,97791.94
2022-10-18T20:34:02.107Z,97798.41
2022-10-18T20:39:06.137Z,97796.78
2022-10-18T20:44:13.792Z,97796.53
2022-10-18T20:49:17.738Z,97800.06
2022-10-18T20:54:21.223Z,97801.41
2022-10-18T20:59:25.374Z,97803.59
2022-10-18T21:04:28.730Z,97800.63
2022-10-18T21:09:32.186Z,97802.78
2022-10-18T21:14:35.266Z,97797.88
2022-10-18T21:19:38.466Z,97795.69
2022-10-18T21:24:41.957Z,97791.38
2022-10-18T21:29:45.523Z,97797.34
2022-10-18T21:34:54.266Z,97794.63
2022-10-18T21:40:08.117Z,97787.03
2022-10-18T21:45:11.463Z,97786.75
2022-10-18T21:50:14.991Z,97784.06
2022-10-18T21:55:18.304Z,97781.34
2022-10-18T22:00:22.051Z,97780.53
2022-10-18T22:05:25.739Z,97777.28
2022-10-18T22:10:29.349Z,97770.50
2022-10-18T22:15:32.909Z,97765.09
2022-10-18T22:20:36.179Z,97761.81
2022-10-18T22:25:39.469Z,97759.09
2022-10-18T22:30:42.718Z,97759.66
2022-10-18T22:35:50.333Z,97756.94
2022-10-18T22:40:54.156Z,97750.19
2022-10-18T22:46:04.136Z,97750.19
2022-10-18T22:51:09.509Z,97741.50
2022-10-18T22:56:16.822Z,97741.25
2022-10-18T23:01:22.708Z,97740.94
2022-10-18T23:06:31.713Z,97727.97
2022-10-18T23:11:37.015Z,97717.66
2022-10-18T23:16:40.367Z,97709.50
2022-10-18T23:21:45.598Z,97715.75
2022-10-18T23:26:48.900Z,97714.41
2022-10-18T23:31:52.059Z,97711.41
2022-10-18T23:37:27.231Z,97706.25
2022-10-18T23:42:30.500Z,97700.31
2022-10-18T23:47:34.373Z,97697.59
2022-10-18T23:52:38.227Z,97697.59
2022-10-18T23:57:41.703Z,97693.28
